Time;durP1;ratioP1;P1;durP2;ratioP2;P2;SDS_P1;SDS_P2;PMS_P1;PMS_P2;Temp;Humidity;BMP_temperature;BMP_pressure;BME280_temperature;BME280_humidity;BME280_pressure;Samples;Min_cycle;Max_cycle;Signal;HPM_P1;HPM_P2
2022/02/08 00:00:41;;;;;;;13.67;3.87;;;7.20;94.60;;;;;;5039119;28;20051;-83
2022/02/08 00:03:08;;;;;;;22.73;4.10;;;7.20;94.80;;;;;;5056756;28;20422;-81
2022/02/08 00:05:36;;;;;;;19.23;4.80;;;7.10;95.10;;;;;;5057031;28;20025;-81
2022/02/08 00:08:01;;;;;;;18.57;4.73;;;7.20;95.60;;;;;;5055840;28;20028;-82
2022/02/08 00:10:28;;;;;;;18.13;4.50;;;7.20;95.70;;;;;;5038626;28;20461;-81
2022/02/08 00:12:55;;;;;;;20.53;5.63;;;7.20;96.30;;;;;;5038856;28;20035;-81
2022/02/08 00:15:21;;;;;;;17.33;4.67;;;7.20;96.50;;;;;;5056490;28;20473;-82
2022/02/08 00:17:47;;;;;;;21.13;6.33;;;7.10;96.90;;;;;;5021726;28;20112;-81
2022/02/08 00:20:13;;;;;;;19.37;4.17;;;7.10;96.80;;;;;;5021745;28;20124;-81
2022/02/08 00:22:39;;;;;;;17.53;5.53;;;7.10;97.00;;;;;;5055711;28;20111;-81
2022/02/08 00:25:06;;;;;;;18.37;4.90;;;7.10;97.70;;;;;;5021592;28;20033;-81
2022/02/08 00:27:32;;;;;;;22.20;5.53;;;7.10;98.00;;;;;;5056323;28;20033;-81
2022/02/08 00:29:58;;;;;;;22.33;5.13;;;7.20;98.10;;;;;;5056334;28;20029;-79
2022/02/08 00:32:23;;;;;;;24.53;5.67;;;7.10;98.80;;;;;;5038176;28;20036;-79
2022/02/08 00:34:49;;;;;;;28.53;6.07;;;7.10;98.80;;;;;;5038014;28;20037;-80
2022/02/08 00:37:15;;;;;;;25.50;5.10;;;7.00;98.80;;;;;;5055727;28;20025;-79
2022/02/08 00:39:42;;;;;;;20.60;5.97;;;7.00;98.90;;;;;;5037945;28;20179;-80
2022/02/08 00:42:10;;;;;;;22.57;6.53;;;7.10;99.10;;;;;;5021708;28;20033;-79
2022/02/08 00:44:43;;;;;;;22.80;7.10;;;7.00;99.20;;;;;;5055498;28;20052;-79
2022/02/08 00:47:33;;;;;;;26.33;8.23;;;7.10;99.40;;;;;;5055855;28;20029;-79
2022/02/08 00:50:06;;;;;;;18.90;6.50;;;7.10;99.20;;;;;;5037752;28;20362;-79
2022/02/08 00:52:33;;;;;;;26.53;6.67;;;7.00;99.50;;;;;;5055174;28;20024;-79
2022/02/08 00:55:00;;;;;;;21.77;7.40;;;7.00;99.70;;;;;;5055566;28;20057;-79
2022/02/08 00:57:25;;;;;;;26.77;7.77;;;7.10;99.90;;;;;;5055637;28;20060;-79
2022/02/08 00:59:51;;;;;;;17.63;6.87;;;7.10;99.90;;;;;;5021071;28;20177;-79
2022/02/08 01:02:18;;;;;;;18.17;6.47;;;7.10;99.90;;;;;;5055204;28;20037;-79
2022/02/08 01:04:48;;;;;;;20.43;6.63;;;7.00;99.90;;;;;;5055344;28;20040;-79
2022/02/08 01:07:14;;;;;;;27.97;7.97;;;7.10;99.90;;;;;;5055235;28;20416;-79
2022/02/08 01:12:06;;;;;;;24.10;8.97;;;7.10;99.90;;;;;;5037883;28;20098;-79
2022/02/08 01:14:37;;;;;;;22.87;8.93;;;7.10;99.90;;;;;;5055332;28;20036;-79
2022/02/08 01:17:04;;;;;;;23.73;8.23;;;7.00;99.90;;;;;;5037878;28;20029;-80
2022/02/08 01:19:30;;;;;;;29.13;9.80;;;7.10;99.90;;;;;;5020895;28;20420;-79
2022/02/08 01:21:56;;;;;;;27.63;9.67;;;7.00;99.90;;;;;;5054734;28;20044;-79
2022/02/08 01:24:22;;;;;;;27.67;10.93;;;7.10;99.90;;;;;;5036803;28;20025;-79
2022/02/08 01:26:54;;;;;;;26.13;10.50;;;7.10;99.90;;;;;;5054806;28;20485;-79
2022/02/08 01:29:35;;;;;;;21.70;11.00;;;7.00;99.90;;;;;;5038211;28;20040;-79
2022/02/08 01:32:19;;;;;;;24.53;10.90;;;7.10;99.90;;;;;;5022435;28;20150;-79
2022/02/08 01:42:35;;;;;;;26.40;13.10;;;7.10;99.90;;;;;;5037319;28;20175;-79
2022/02/08 01:45:38;;;;;;;31.80;14.63;;;7.20;99.90;;;;;;5022070;28;20045;-79
2022/02/08 01:48:10;;;;;;;36.47;15.40;;;7.20;99.90;;;;;;5054247;28;20033;-79
2022/02/08 01:50:36;;;;;;;30.53;15.67;;;7.20;99.90;;;;;;5037770;28;20444;-79
2022/02/08 01:53:04;;;;;;;31.73;15.97;;;7.10;99.90;;;;;;5020222;28;20061;-79
2022/02/08 01:55:31;;;;;;;31.73;15.97;;;7.20;99.90;;;;;;5020307;28;20066;-80
2022/02/08 01:57:56;;;;;;;38.23;19.43;;;7.20;99.90;;;;;;5036715;28;20036;-79
2022/02/08 02:00:23;;;;;;;32.47;16.90;;;7.20;99.90;;;;;;5019843;28;20397;-79
2022/02/08 02:02:49;;;;;;;35.33;18.17;;;7.20;99.90;;;;;;5054193;28;20041;-79
2022/02/08 02:05:15;;;;;;;28.97;15.60;;;7.10;99.90;;;;;;5053834;28;20040;-79
2022/02/08 02:07:48;;;;;;;32.90;16.87;;;7.30;99.90;;;;;;5036357;28;20462;-79
2022/02/08 02:10:16;;;;;;;32.97;16.90;;;7.30;99.90;;;;;;5036144;28;20021;-79
2022/02/08 02:13:02;;;;;;;35.83;20.73;;;7.30;99.90;;;;;;5054508;28;20028;-81
2022/02/08 02:15:29;;;;;;;31.27;19.57;;;7.30;99.90;;;;;;5053978;28;20057;-79
2022/02/08 02:17:55;;;;;;;31.87;18.73;;;7.30;99.90;;;;;;5035858;28;20043;-79
2022/02/08 02:20:21;;;;;;;38.40;21.20;;;7.30;99.90;;;;;;5053670;28;20051;-80
2022/02/08 02:22:47;;;;;;;36.33;21.77;;;7.40;99.90;;;;;;5053704;28;20039;-79
2022/02/08 02:25:27;;;;;;;30.47;19.53;;;7.40;99.90;;;;;;5053775;28;20036;-80
2022/02/08 02:27:56;;;;;;;36.40;21.83;;;7.40;99.90;;;;;;5053775;28;20460;-80
2022/02/08 02:30:24;;;;;;;39.03;23.10;;;7.30;99.90;;;;;;5035960;28;20028;-79
2022/02/08 02:32:49;;;;;;;36.80;22.80;;;7.50;99.90;;;;;;5035707;28;20087;-81
2022/02/08 02:35:15;;;;;;;40.17;23.30;;;7.40;99.90;;;;;;5035747;28;20029;-79
2022/02/08 02:37:40;;;;;;;44.73;24.80;;;7.50;99.90;;;;;;5035768;28;20056;-80
2022/02/08 02:40:07;;;;;;;41.63;24.33;;;7.50;99.90;;;;;;5035961;28;20106;-80
2022/02/08 02:42:33;;;;;;;47.97;27.53;;;7.60;99.90;;;;;;5019720;28;20043;-82
2022/02/08 02:45:00;;;;;;;54.77;28.13;;;7.60;99.90;;;;;;5019337;28;20098;-80
2022/02/08 02:47:25;;;;;;;47.53;28.33;;;7.60;99.90;;;;;;5035288;28;20029;-79
2022/02/08 02:49:51;;;;;;;47.70;27.30;;;7.60;99.90;;;;;;5035103;28;20029;-79
2022/02/08 02:52:17;;;;;;;48.80;27.87;;;7.70;99.90;;;;;;5053359;28;20037;-82
2022/02/08 02:54:43;;;;;;;47.17;27.60;;;7.80;99.90;;;;;;5036059;28;20156;-80
2022/02/08 02:57:11;;;;;;;49.27;28.70;;;7.70;99.90;;;;;;5053316;28;20037;-80
2022/02/08 02:59:38;;;;;;;46.20;28.77;;;7.80;99.90;;;;;;5035350;28;20087;-79
2022/02/08 03:04:48;;;;;;;44.20;27.73;;;7.80;99.90;;;;;;5053681;28;20037;-80
2022/02/08 03:20:45;;;;;;;57.23;33.50;;;8.00;99.90;;;;;;5037491;28;20036;-80
2022/02/08 03:23:11;;;;;;;59.67;34.73;;;7.90;99.90;;;;;;5018523;28;20033;-79
2022/02/08 03:25:37;;;;;;;56.53;34.00;;;7.90;99.90;;;;;;5035108;28;20035;-79
2022/02/08 03:28:03;;;;;;;65.53;34.40;;;8.00;99.90;;;;;;5035206;28;20381;-80
2022/02/08 03:30:28;;;;;;;53.50;31.73;;;8.00;99.90;;;;;;5053164;28;20211;-80
2022/02/08 03:32:55;;;;;;;59.23;34.87;;;8.00;99.90;;;;;;5052636;28;20037;-79
2022/02/08 03:35:21;;;;;;;53.10;33.57;;;8.10;99.90;;;;;;5018680;28;20029;-79
2022/02/08 03:37:56;;;;;;;65.07;35.23;;;8.20;99.90;;;;;;5053002;28;20469;-80
2022/02/08 03:40:37;;;;;;;66.07;33.97;;;8.10;99.90;;;;;;5052868;28;20031;-79
2022/02/08 03:45:50;;;;;;;56.33;31.07;;;8.10;99.90;;;;;;5052616;28;20501;-79
2022/02/08 03:48:18;;;;;;;53.13;29.40;;;8.20;99.90;;;;;;5052883;28;20473;-79
2022/02/08 03:50:50;;;;;;;55.70;30.77;;;8.10;99.90;;;;;;5052794;28;20075;-79
2022/02/08 03:53:15;;;;;;;53.07;30.57;;;8.30;99.90;;;;;;5035147;28;20029;-79
2022/02/08 03:55:41;;;;;;;47.37;27.70;;;8.20;99.90;;;;;;5035318;28;20029;-79
2022/02/08 03:58:06;;;;;;;54.50;28.47;;;8.30;99.90;;;;;;5052901;28;20090;-80
2022/02/08 04:00:41;;;;;;;56.17;30.33;;;8.40;99.90;;;;;;5054747;28;20147;-79
2022/02/08 04:03:06;;;;;;;50.60;29.53;;;8.40;99.90;;;;;;5056111;28;20132;-80
2022/02/08 04:05:37;;;;;;;45.90;27.03;;;8.40;99.90;;;;;;5056523;28;20055;-79
2022/02/08 04:08:07;;;;;;;51.37;27.70;;;8.50;99.90;;;;;;5023042;28;20458;-81
2022/02/08 04:10:33;;;;;;;45.33;26.80;;;8.40;99.90;;;;;;5022564;28;20033;-80
2022/02/08 04:13:12;;;;;;;55.23;26.77;;;8.50;99.90;;;;;;5056054;28;20397;-79
2022/02/08 04:39:40;;;;;;;37.97;23.37;;;8.70;99.90;;;;;;5038114;28;20404;-80
2022/02/08 04:42:12;;;;;;;47.78;25.73;;;8.60;99.90;;;;;;5042009;28;20033;-79
2022/02/08 04:45:07;;;;;;;46.30;27.02;;;8.70;99.90;;;;;;5039337;28;20052;-79
2022/02/08 04:47:30;;;;;;;44.53;24.23;;;8.70;99.90;;;;;;5054068;28;20029;-79
2022/02/08 04:49:56;;;;;;;45.47;25.07;;;8.70;99.90;;;;;;5038890;28;20567;-80
2022/02/08 04:52:24;;;;;;;46.30;26.03;;;8.80;99.90;;;;;;5037735;28;20021;-79
2022/02/08 04:57:33;;;;;;;45.47;24.83;;;8.80;99.90;;;;;;5038674;28;20033;-80
2022/02/08 05:48:31;;;;;;;32.77;19.00;;;8.90;99.90;;;;;;5020532;28;20057;-79
2022/02/08 05:51:04;;;;;;;31.15;18.10;;;8.80;99.90;;;;;;5051714;28;20454;-80
2022/02/08 05:53:33;;;;;;;31.23;18.23;;;8.80;99.90;;;;;;5015948;28;20025;-76
2022/02/08 05:55:59;;;;;;;30.00;18.17;;;8.80;99.90;;;;;;5048593;28;20488;-77
2022/02/08 05:58:26;;;;;;;32.73;17.70;;;9.00;99.90;;;;;;5052095;28;20106;-76
2022/02/08 06:00:52;;;;;;;33.20;17.23;;;8.80;99.90;;;;;;5018070;28;20036;-76
2022/02/08 06:03:19;;;;;;;35.60;17.50;;;8.80;99.90;;;;;;5052727;28;20436;-77
2022/02/08 06:05:44;;;;;;;27.50;16.50;;;8.80;99.90;;;;;;5035907;28;20102;-76
2022/02/08 06:08:10;;;;;;;30.57;15.83;;;8.90;99.90;;;;;;5053724;28;20053;-76
2022/02/08 06:10:45;;;;;;;30.30;17.07;;;8.80;99.90;;;;;;5035411;28;20036;-76
2022/02/08 06:13:11;;;;;;;33.93;19.30;;;8.80;99.90;;;;;;5053527;28;20042;-76
2022/02/08 06:15:39;;;;;;;28.43;17.57;;;8.80;99.90;;;;;;5053433;28;20029;-76
2022/02/08 06:18:04;;;;;;;28.23;16.33;;;8.80;99.90;;;;;;5035903;28;20025;-76
2022/02/08 06:20:30;;;;;;;29.93;17.63;;;8.80;99.90;;;;;;5053172;28;20029;-76
2022/02/08 06:22:56;;;;;;;28.70;17.50;;;8.70;99.90;;;;;;5035024;28;20197;-76
2022/02/08 06:25:21;;;;;;;26.23;15.13;;;8.80;99.90;;;;;;5052762;28;20029;-76
2022/02/08 06:27:50;;;;;;;27.33;15.07;;;8.80;99.90;;;;;;5034657;28;20072;-77
2022/02/08 06:30:18;;;;;;;28.37;15.20;;;8.70;99.90;;;;;;5049997;28;20036;-76
2022/02/08 06:32:44;;;;;;;28.10;14.63;;;8.90;99.90;;;;;;5035994;28;20547;-76
2022/02/08 06:35:30;;;;;;;29.70;15.97;;;8.70;99.90;;;;;;5053382;28;20473;-76
2022/02/08 06:37:58;;;;;;;31.80;15.27;;;8.70;99.90;;;;;;5053153;28;20028;-76
2022/02/08 06:40:24;;;;;;;29.57;14.63;;;8.70;99.90;;;;;;5053293;28;20425;-76
2022/02/08 06:42:50;;;;;;;31.33;16.03;;;8.70;99.90;;;;;;5053483;28;20159;-77
2022/02/08 06:45:16;;;;;;;24.60;14.03;;;8.60;99.90;;;;;;5035340;28;20102;-77
2022/02/08 06:47:44;;;;;;;24.13;14.30;;;8.60;99.90;;;;;;5035474;28;20036;-78
2022/02/08 06:50:11;;;;;;;28.43;14.53;;;8.60;99.90;;;;;;5020087;28;20393;-77
2022/02/08 06:52:36;;;;;;;24.70;13.80;;;8.60;99.90;;;;;;5052860;28;20067;-77
2022/02/08 06:55:05;;;;;;;28.03;14.97;;;8.60;99.90;;;;;;5041363;28;20065;-78
2022/02/08 06:57:37;;;;;;;28.43;14.63;;;8.60;99.90;;;;;;5052869;28;20024;-77
2022/02/08 07:00:05;;;;;;;29.50;15.13;;;8.60;99.90;;;;;;5042119;28;20120;-78
2022/02/08 07:02:30;;;;;;;22.70;14.43;;;8.60;99.90;;;;;;5051944;28;20481;-77
2022/02/08 07:04:56;;;;;;;30.13;14.80;;;8.60;99.90;;;;;;5051693;28;20119;-79
2022/02/08 07:07:22;;;;;;;25.23;14.30;;;8.50;99.90;;;;;;5034290;28;20017;-77
2022/02/08 07:09:47;;;;;;;27.10;13.97;;;8.60;99.90;;;;;;5035037;28;20088;-78
2022/02/08 07:12:13;;;;;;;26.90;15.50;;;8.50;99.90;;;;;;5053188;28;20083;-78
2022/02/08 07:14:40;;;;;;;27.23;15.70;;;8.60;99.90;;;;;;5035117;28;20028;-78
2022/02/08 07:17:06;;;;;;;27.23;13.90;;;8.60;99.90;;;;;;5034529;28;20042;-78
2022/02/08 07:19:32;;;;;;;26.67;13.97;;;8.60;99.90;;;;;;5052630;28;20079;-78
2022/02/08 07:21:57;;;;;;;28.90;14.57;;;8.60;99.90;;;;;;5032868;28;20033;-78
2022/02/08 07:24:23;;;;;;;29.67;13.70;;;8.60;99.90;;;;;;5047718;28;20470;-78
2022/02/08 07:26:52;;;;;;;27.47;14.23;;;8.70;99.90;;;;;;5014942;28;20470;-78
2022/02/08 07:29:18;;;;;;;26.47;11.97;;;8.70;99.90;;;;;;5030998;28;20120;-78
2022/02/08 07:32:04;;;;;;;24.40;11.40;;;8.70;99.90;;;;;;5015229;28;20025;-78
2022/02/08 07:34:46;;;;;;;23.87;10.03;;;8.80;99.90;;;;;;5022275;28;20101;-78
2022/02/08 07:37:19;;;;;;;21.60;9.93;;;8.80;99.90;;;;;;5041532;28;20025;-78
2022/02/08 07:39:54;;;;;;;18.00;8.40;;;8.90;99.90;;;;;;5056858;28;20067;-78
2022/02/08 07:42:20;;;;;;;24.53;8.50;;;8.90;99.90;;;;;;5040457;28;20029;-78
2022/02/08 07:44:46;;;;;;;22.27;7.60;;;8.90;99.90;;;;;;5035269;28;20056;-78
2022/02/08 07:47:13;;;;;;;20.20;6.73;;;9.00;99.90;;;;;;5035569;28;20108;-78
2022/02/08 07:49:40;;;;;;;20.77;7.03;;;9.00;99.90;;;;;;5035203;28;20033;-79
2022/02/08 07:52:07;;;;;;;17.47;6.13;;;9.10;99.90;;;;;;5035339;28;20466;-78
2022/02/08 07:54:33;;;;;;;20.67;5.50;;;9.10;99.90;;;;;;5036686;28;20026;-78
2022/02/08 07:56:59;;;;;;;15.70;4.67;;;9.10;99.90;;;;;;5036678;28;20025;-78
2022/02/08 07:59:24;;;;;;;18.37;4.70;;;9.20;99.90;;;;;;5035485;28;20040;-78
2022/02/08 08:01:50;;;;;;;16.63;4.37;;;9.20;99.90;;;;;;5035287;28;20104;-78
2022/02/08 08:04:16;;;;;;;19.30;3.77;;;9.20;99.90;;;;;;5036466;28;20397;-78
2022/02/08 08:06:41;;;;;;;16.23;3.90;;;9.20;99.90;;;;;;5018720;28;20541;-78
2022/02/08 08:09:07;;;;;;;14.00;3.80;;;9.20;99.90;;;;;;5035109;28;20030;-78
2022/02/08 08:11:37;;;;;;;17.00;3.90;;;9.30;99.90;;;;;;5035068;28;20029;-78
2022/02/08 08:14:06;;;;;;;15.37;3.17;;;9.30;99.90;;;;;;5036119;28;20025;-78
2022/02/08 08:19:18;;;;;;;13.00;3.40;;;9.30;99.90;;;;;;5031692;28;20414;-78
2022/02/08 08:21:44;;;;;;;16.07;3.10;;;9.40;99.90;;;;;;5014755;28;20073;-78
2022/02/08 08:24:09;;;;;;;13.50;2.43;;;9.40;99.90;;;;;;5016043;28;20030;-78
2022/02/08 08:26:36;;;;;;;10.60;2.90;;;9.40;99.90;;;;;;5014911;28;20030;-78
2022/02/08 08:29:03;;;;;;;16.87;3.20;;;9.50;99.90;;;;;;5031272;28;20095;-78
2022/02/08 08:31:29;;;;;;;15.27;2.20;;;9.50;99.90;;;;;;5015997;28;20029;-78
2022/02/08 08:33:54;;;;;;;12.47;2.53;;;9.50;99.90;;;;;;5016185;28;20417;-78
2022/02/08 08:36:21;;;;;;;13.83;2.73;;;9.60;99.90;;;;;;5015889;28;20056;-78
2022/02/08 08:38:50;;;;;;;11.23;1.80;;;9.60;99.90;;;;;;5014715;28;20033;-78
2022/02/08 08:41:28;;;;;;;12.97;1.80;;;9.60;99.90;;;;;;5015920;28;20053;-78
2022/02/08 08:50:12;;;;;;;14.68;1.67;;;9.80;99.90;;;;;;5020832;28;20052;-78
2022/02/08 08:52:11;;;;;;;15.77;1.87;;;9.90;99.90;;;;;;5028799;28;20041;-78
2022/02/08 08:54:36;;;;;;;12.03;1.90;;;9.70;99.90;;;;;;5017761;28;20079;-79
2022/02/08 08:57:02;;;;;;;13.50;1.77;;;9.80;99.90;;;;;;5017646;28;20104;-78
2022/02/08 08:59:28;;;;;;;11.40;1.87;;;9.80;99.90;;;;;;5035397;28;20466;-78
2022/02/08 09:01:54;;;;;;;9.43;1.40;;;9.90;99.90;;;;;;5027172;28;20086;-78
2022/02/08 09:04:20;;;;;;;11.50;1.40;;;9.90;99.90;;;;;;5055053;28;20061;-78
2022/02/08 09:06:49;;;;;;;11.67;1.60;;;10.00;99.90;;;;;;5054922;28;20033;-78
2022/02/08 09:09:17;;;;;;;12.43;1.70;;;10.10;99.90;;;;;;5055055;28;20021;-79
2022/02/08 09:14:13;;;;;;;12.47;1.50;;;10.20;99.90;;;;;;5054683;28;20040;-78
2022/02/08 09:29:47;;;;;;;10.68;1.48;;;10.50;99.90;;;;;;5036938;28;20424;-80
2022/02/08 09:32:20;;;;;;;12.20;1.37;;;10.50;99.80;;;;;;5038162;28;20116;-78
2022/02/08 09:34:47;;;;;;;12.27;1.30;;;10.60;99.60;;;;;;5036575;28;20106;-79
2022/02/08 09:37:16;;;;;;;7.57;1.10;;;10.70;99.30;;;;;;5054474;28;20035;-78
2022/02/08 09:39:43;;;;;;;13.10;1.23;;;10.80;99.20;;;;;;5054450;28;20466;-78
2022/02/08 09:42:09;;;;;;;13.27;1.65;;;10.80;98.90;;;;;;5019925;28;20473;-78
2022/02/08 09:44:37;;;;;;;7.43;0.98;;;10.80;98.70;;;;;;5033009;28;20397;-79
2022/02/08 09:47:07;;;;;;;7.25;0.80;;;10.90;98.70;;;;;;5016809;28;20433;-81
2022/02/08 09:49:39;;;;;;;7.88;1.00;;;11.00;98.20;;;;;;5034453;28;20033;-81
2022/02/08 09:52:05;;;;;;;7.63;1.33;;;11.00;98.20;;;;;;5017586;28;20030;-79
2022/02/08 09:54:31;;;;;;;9.05;1.23;;;11.10;97.80;;;;;;5033048;28;20444;-78
2022/02/08 09:56:57;;;;;;;7.88;1.00;;;11.20;97.90;;;;;;5033131;28;20040;-80
2022/02/08 09:59:22;;;;;;;10.57;1.15;;;11.30;97.50;;;;;;5032464;28;20030;-80
2022/02/08 10:01:58;;;;;;;9.82;0.77;;;11.30;97.20;;;;;;5015748;28;20088;-79
2022/02/08 10:04:24;;;;;;;12.45;1.20;;;11.40;97.00;;;;;;5034158;28;20035;-80
2022/02/08 10:06:52;;;;;;;7.93;1.00;;;11.40;96.70;;;;;;5032697;28;20029;-79
2022/02/08 10:09:18;;;;;;;10.30;1.45;;;11.50;96.90;;;;;;5034014;28;20030;-79
2022/02/08 10:11:56;;;;;;;8.23;0.80;;;11.60;96.90;;;;;;5034047;28;20017;-79
2022/02/08 10:14:51;;;;;;;9.38;1.30;;;11.70;96.80;;;;;;5034062;28;20420;-79
2022/02/08 10:22:31;;;;;;;6.15;0.70;;;11.80;95.70;;;;;;5033200;28;20032;-79
2022/02/08 10:25:08;;;;;;;5.90;0.90;;;11.70;95.30;;;;;;5032374;28;20493;-79
2022/02/08 10:27:38;;;;;;;8.98;1.05;;;11.70;95.20;;;;;;5032405;28;20160;-83
2022/02/08 10:30:56;;;;;;;10.88;1.40;;;11.70;95.00;;;;;;5032412;28;20021;-82
2022/02/08 10:38:51;;;;;;;9.45;1.33;;;11.50;95.20;;;;;;5034542;28;20083;-84
2022/02/08 10:41:21;;;;;;;13.27;1.15;;;11.50;95.10;;;;;;5016644;28;20041;-81
2022/02/08 10:44:08;;;;;;;6.60;0.90;;;11.40;95.00;;;;;;5034212;28;20022;-82
2022/02/08 10:46:35;;;;;;;8.60;1.40;;;11.30;95.00;;;;;;5053240;28;20116;-81
2022/02/08 10:49:05;;;;;;;8.13;0.90;;;11.30;95.20;;;;;;5036015;28;20033;-81
2022/02/08 10:51:35;;;;;;;4.40;0.75;;;11.30;95.30;;;;;;5053340;28;20028;-82
2022/02/08 10:54:08;;;;;;;7.38;0.90;;;11.30;95.20;;;;;;5036088;28;20032;-83
2022/02/08 10:56:36;;;;;;;9.07;1.10;;;11.30;95.20;;;;;;5054115;28;20037;-79
2022/02/08 10:59:24;;;;;;;7.20;0.93;;;11.30;95.30;;;;;;5053452;28;20481;-80
2022/02/08 11:02:08;;;;;;;17.60;1.00;;;11.30;95.40;;;;;;5039379;28;20465;-81
2022/02/08 11:05:16;;;;;;;12.15;1.33;;;11.30;95.40;;;;;;5053779;28;20017;-80
2022/02/08 11:12:50;;;;;;;7.70;1.00;;;11.50;95.60;;;;;;5052971;28;20037;-81
2022/02/08 11:18:30;;;;;;;10.80;1.35;;;11.50;94.80;;;;;;5038099;28;20357;-83
2022/02/08 11:21:43;;;;;;;7.80;1.05;;;11.60;94.70;;;;;;5051854;28;20064;-80
2022/02/08 11:26:38;;;;;;;9.35;0.80;;;11.70;94.60;;;;;;5052656;28;20041;-80
2022/02/08 11:29:44;;;;;;;8.98;0.93;;;11.60;94.20;;;;;;5052417;28;20529;-79
2022/02/08 11:46:07;;;;;;;10.70;1.13;;;11.80;94.10;;;;;;5050954;28;20103;-82
2022/02/08 11:59:50;;;;;;;12.93;1.25;;;12.00;93.00;;;;;;5052530;28;20057;-79
2022/02/08 12:07:45;;;;;;;7.63;1.02;;;12.00;92.90;;;;;;5051254;28;20461;-82
2022/02/08 12:10:27;;;;;;;11.23;1.38;;;12.00;92.60;;;;;;5035602;28;20025;-79
2022/02/08 12:13:49;;;;;;;8.00;0.95;;;12.00;92.60;;;;;;5052708;28;20025;-83
2022/02/08 12:32:25;;;;;;;6.43;0.80;;;12.20;91.90;;;;;;5055944;28;20025;-81
2022/02/08 13:17:44;;;;;;;9.25;0.85;;;12.30;91.00;;;;;;5040266;28;20099;-85
2022/02/08 14:02:29;;;;;;;7.07;1.15;;;11.90;91.30;;;;;;5053877;28;20132;-82
2022/02/08 14:07:55;;;;;;;6.78;0.73;;;11.90;91.20;;;;;;5051175;28;20040;-83
2022/02/08 14:13:36;;;;;;;8.10;0.80;;;11.90;91.10;;;;;;5005500;28;20036;-83
2022/02/08 14:31:50;;;;;;;7.28;0.80;;;12.00;90.70;;;;;;5038742;28;20560;-80
2022/02/08 15:09:03;;;;;;;6.30;0.85;;;11.80;90.70;;;;;;5053262;28;20470;-84
2022/02/08 15:11:43;;;;;;;3.15;0.50;;;11.80;90.60;;;;;;5035636;28;20393;-81
2022/02/08 15:14:09;;;;;;;9.98;0.82;;;11.80;90.60;;;;;;5034420;28;20051;-83
2022/02/08 15:16:36;;;;;;;3.90;0.50;;;11.70;90.60;;;;;;5035240;28;20033;-82
2022/02/08 15:19:02;;;;;;;9.25;0.70;;;11.70;90.70;;;;;;5034872;28;20474;-80
2022/02/08 15:21:33;;;;;;;5.03;0.93;;;11.70;90.80;;;;;;5052859;28;20040;-80
2022/02/08 15:24:01;;;;;;;6.95;0.68;;;11.70;91.00;;;;;;5034437;28;20385;-80
2022/02/08 15:26:27;;;;;;;11.43;1.00;;;11.70;91.10;;;;;;5052489;28;20029;-82
2022/02/08 15:28:54;;;;;;;8.07;0.93;;;11.70;91.00;;;;;;5034371;28;20061;-80
2022/02/08 15:31:20;;;;;;;6.88;0.80;;;11.80;91.20;;;;;;5052562;28;20025;-84
2022/02/08 15:33:46;;;;;;;6.68;0.75;;;11.70;91.10;;;;;;5018647;28;20142;-83
2022/02/08 15:36:15;;;;;;;7.53;0.75;;;11.70;91.10;;;;;;5035123;28;20178;-84
2022/02/08 15:38:47;;;;;;;8.18;0.88;;;11.60;90.90;;;;;;5034524;28;20021;-80
2022/02/08 15:41:13;;;;;;;11.20;0.77;;;11.70;91.10;;;;;;5052827;28;20033;-81
2022/02/08 15:43:39;;;;;;;6.75;0.60;;;11.70;91.10;;;;;;5034124;28;20508;-80
2022/02/08 15:46:15;;;;;;;4.68;0.75;;;11.70;91.10;;;;;;5051941;28;20021;-80
2022/02/08 15:48:44;;;;;;;9.00;1.10;;;11.70;91.00;;;;;;5052296;28;20036;-81
2022/02/08 16:07:13;;;;;;;6.75;0.80;;;11.50;90.60;;;;;;5040992;28;20036;-80
2022/02/08 16:15:13;;;;;;;6.07;0.98;;;11.40;90.80;;;;;;5056226;28;20437;-80
2022/02/08 16:50:54;;;;;;;6.20;0.82;;;11.30;92.30;;;;;;5034974;28;20035;-78
2022/02/08 17:01:07;;;;;;;7.07;0.80;;;11.20;92.30;;;;;;5035499;28;20470;-78
2022/02/08 17:03:33;;;;;;;5.97;0.85;;;11.20;92.30;;;;;;5035301;28;20053;-77
2022/02/08 17:05:59;;;;;;;3.08;0.65;;;11.10;92.30;;;;;;5034069;28;20084;-78
2022/02/08 17:08:26;;;;;;;4.82;0.60;;;11.20;92.40;;;;;;5034125;28;20029;-77
2022/02/08 17:10:56;;;;;;;5.90;0.90;;;11.20;92.40;;;;;;5035558;28;20033;-78
2022/02/08 17:48:16;;;;;;;6.13;0.90;;;11.10;92.80;;;;;;5033987;28;20037;-79
2022/02/08 17:50:42;;;;;;;5.82;0.70;;;11.10;92.70;;;;;;5016764;28;20044;-79
2022/02/08 17:53:07;;;;;;;3.63;0.63;;;11.00;92.60;;;;;;5033306;28;20108;-78
2022/02/08 17:55:33;;;;;;;11.45;0.80;;;11.00;92.70;;;;;;5033277;28;20037;-78
2022/02/08 17:58:00;;;;;;;6.82;0.95;;;11.00;92.60;;;;;;5034459;28;20044;-78
2022/02/08 18:00:26;;;;;;;7.13;1.20;;;11.00;92.70;;;;;;5032821;28;20043;-79
2022/02/08 18:02:52;;;;;;;3.27;0.60;;;11.00;92.70;;;;;;5033919;28;20064;-78
2022/02/08 18:05:18;;;;;;;5.00;1.25;;;11.00;92.60;;;;;;5033890;28;20022;-78
2022/02/08 18:07:44;;;;;;;11.15;1.08;;;11.00;92.60;;;;;;5023664;28;20018;-78
2022/02/08 18:10:12;;;;;;;8.73;0.97;;;11.00;92.60;;;;;;5023334;28;20494;-78
2022/02/08 18:12:41;;;;;;;6.38;0.80;;;10.90;92.50;;;;;;5039758;28;20124;-78
2022/02/08 18:15:12;;;;;;;5.55;0.80;;;10.90;92.60;;;;;;5024951;28;20543;-78
2022/02/08 18:17:43;;;;;;;7.87;1.10;;;10.90;92.60;;;;;;5024564;28;20077;-79
2022/02/08 18:20:25;;;;;;;6.78;1.00;;;10.90;92.70;;;;;;5033521;28;20167;-79
2022/02/08 18:55:50;;;;;;;7.33;2.60;;;10.60;93.70;;;;;;5013506;28;20029;-78
2022/02/08 19:16:22;;;;;;;10.40;2.83;;;10.60;94.30;;;;;;5007887;28;20038;-79
2022/02/08 19:19:16;;;;;;;8.60;3.00;;;10.50;94.30;;;;;;5009432;28;20030;-79
2022/02/08 19:21:45;;;;;;;7.90;2.97;;;10.50;94.40;;;;;;5011858;28;20061;-79
2022/02/08 19:24:19;;;;;;;7.20;2.30;;;10.50;94.50;;;;;;5010423;28;20234;-79
2022/02/08 19:26:57;;;;;;;7.45;2.63;;;10.50;94.50;;;;;;4996315;28;20026;-79
2022/02/08 19:29:23;;;;;;;7.63;2.97;;;10.40;94.50;;;;;;5012076;28;20529;-79
2022/02/08 19:31:50;;;;;;;6.83;2.60;;;10.40;94.60;;;;;;5014443;28;20409;-79
2022/02/08 19:34:16;;;;;;;8.07;3.00;;;10.50;94.70;;;;;;5015956;28;20467;-79
2022/02/08 19:36:44;;;;;;;12.07;4.17;;;10.40;94.70;;;;;;5017192;28;20472;-77
2022/02/08 19:39:10;;;;;;;7.33;3.30;;;10.40;94.70;;;;;;5015855;28;20026;-77
2022/02/08 19:41:36;;;;;;;6.83;3.47;;;10.40;94.80;;;;;;5017105;28;20033;-77
2022/02/08 19:44:03;;;;;;;7.57;3.80;;;10.40;94.80;;;;;;5017979;28;20105;-77
2022/02/08 19:46:29;;;;;;;10.53;4.40;;;10.40;94.80;;;;;;5056528;28;20037;-77
2022/02/08 19:48:55;;;;;;;7.83;4.23;;;10.40;94.90;;;;;;5055396;28;20405;-77
2022/02/08 19:51:20;;;;;;;12.83;3.60;;;10.30;94.90;;;;;;5056740;28;20032;-77
2022/02/08 19:53:49;;;;;;;9.97;4.23;;;10.40;94.90;;;;;;5056714;28;20029;-77
2022/02/08 19:58:54;;;;;;;10.87;3.90;;;10.40;95.00;;;;;;5056509;28;20378;-77
2022/02/08 20:01:28;;;;;;;9.83;4.20;;;10.40;95.00;;;;;;5055136;28;20021;-77
2022/02/08 20:04:05;;;;;;;12.18;3.75;;;10.40;95.00;;;;;;5056431;28;20033;-77
2022/02/08 20:06:36;;;;;;;9.00;4.07;;;10.50;95.10;;;;;;5056200;28;20440;-78
2022/02/08 20:09:06;;;;;;;11.00;4.37;;;10.40;95.00;;;;;;5056265;28;20117;-77
2022/02/08 20:11:31;;;;;;;7.87;4.47;;;10.40;95.00;;;;;;5054954;28;20075;-77
2022/02/08 20:13:57;;;;;;;9.60;4.77;;;10.40;95.00;;;;;;5056084;28;20390;-77
2022/02/08 20:16:29;;;;;;;9.73;4.27;;;10.50;95.10;;;;;;5054691;28;20032;-77
2022/02/08 20:18:58;;;;;;;8.68;4.43;;;10.50;95.10;;;;;;5055929;28;20078;-77
2022/02/08 20:21:25;;;;;;;9.47;4.10;;;10.40;95.00;;;;;;5056119;28;20036;-77
2022/02/08 20:23:52;;;;;;;13.07;5.67;;;10.50;95.00;;;;;;5055645;28;20534;-78
2022/02/08 20:26:22;;;;;;;14.37;6.13;;;10.50;95.00;;;;;;5056003;28;20359;-77
2022/02/08 20:28:53;;;;;;;10.20;5.87;;;10.40;94.90;;;;;;5056001;28;20029;-77
2022/02/08 20:31:20;;;;;;;11.30;5.63;;;10.40;95.00;;;;;;5055872;28;20021;-77
2022/02/08 20:33:47;;;;;;;15.13;7.07;;;10.50;95.20;;;;;;5054682;28;20086;-77
2022/02/08 20:36:13;;;;;;;15.83;6.03;;;10.40;94.90;;;;;;5054609;28;20037;-78
2022/02/08 20:38:39;;;;;;;10.37;5.83;;;10.60;95.00;;;;;;5035764;28;20029;-78
2022/02/08 20:41:05;;;;;;;16.53;6.17;;;10.40;94.90;;;;;;5033778;28;20144;-78
2022/02/08 20:43:36;;;;;;;12.33;5.30;;;10.40;94.90;;;;;;5035088;28;20549;-79
2022/02/08 20:46:06;;;;;;;8.93;5.10;;;10.40;94.90;;;;;;5051259;28;20064;-77
2022/02/08 20:48:34;;;;;;;12.03;5.07;;;10.30;94.80;;;;;;5055513;28;20025;-77
2022/02/08 20:51:01;;;;;;;9.60;5.00;;;10.30;94.80;;;;;;5055681;28;20029;-77
2022/02/08 20:53:40;;;;;;;11.03;5.83;;;10.30;94.80;;;;;;5021208;28;20028;-78
2022/02/08 20:56:15;;;;;;;12.47;5.43;;;10.30;94.80;;;;;;5055223;28;20032;-77
2022/02/08 21:01:30;;;;;;;13.47;5.97;;;10.30;94.80;;;;;;5055481;28;20025;-77
2022/02/08 21:06:28;;;;;;;9.47;5.67;;;10.30;94.80;;;;;;5037952;28;20025;-77
2022/02/08 21:08:54;;;;;;;12.63;6.70;;;10.30;94.80;;;;;;5055193;28;20043;-77